Lanus, Argentina
Current Conditions -  °F | °C
As of 9:00 AM on Friday 19 Dec 2014 (Local Time) from SAEZ Reporting Station
Clear Clear  
Wind Chill: 82°   Ceiling: Unl
Heat Index: 83°   Visibility: 6mi
Dew Point: 61°   Wind: 16mph
Humidity: 48%   Direction: 320°NW
Pressure: 29.71"   Gusts: NA
Location:  34.72°S, 58.4°W
Report Text: SAEZ 191200Z 32014KT 280V350 CAVOK 28/16 Q1006
Loading
Personal Weather Stations






























Interactive Weather Map New forecast layout! Learn more

10-Day Weather Forecast

Advertisements
Track Severe Weather on mobile